createdAt,value
2023-05-06T00:04:38.947Z,8.3
2023-05-06T00:06:40.915Z,8.7
2023-05-06T00:08:42.956Z,8.7
2023-05-06T00:12:50.192Z,8
2023-05-06T00:14:52.147Z,7.7
2023-05-06T00:19:22.998Z,8.9
2023-05-06T00:21:25.002Z,8.3
2023-05-06T00:23:30.240Z,9.1
2023-05-06T00:25:32.250Z,8.4
2023-05-06T00:27:34.242Z,9.2
2023-05-06T00:29:36.257Z,8.1
2023-05-06T00:31:38.304Z,7.7
2023-05-06T00:33:40.255Z,8
2023-05-06T00:35:42.278Z,9.7
2023-05-06T00:43:53.550Z,9.4
2023-05-06T00:45:55.564Z,9.2
2023-05-06T00:49:59.532Z,9.6
2023-05-06T01:08:24.068Z,10.2
2023-05-06T01:11:28.710Z,12.3
2023-05-06T01:13:30.708Z,10.3
2023-05-06T01:15:32.726Z,11.4
2023-05-06T01:17:34.769Z,12
2023-05-06T01:19:39.919Z,12.6
2023-05-06T01:21:41.940Z,11.1
2023-05-06T01:23:43.927Z,12.7
2023-05-06T01:25:45.965Z,11.2
2023-05-06T01:27:47.995Z,9.1
2023-05-06T01:29:49.938Z,10.3
2023-05-06T01:31:51.960Z,10.1
2023-05-06T01:33:57.290Z,10.1
2023-05-06T01:35:59.188Z,9.2
2023-05-06T01:38:01.201Z,11.5
2023-05-06T01:42:05.196Z,10.4
2023-05-06T02:07:39.855Z,10.7
2023-05-06T02:09:41.844Z,10.3
2023-05-06T02:11:43.840Z,9.8
2023-05-06T02:13:45.853Z,11
2023-05-06T02:15:51.163Z,10.7
2023-05-06T02:17:53.111Z,11.6
2023-05-06T02:19:55.095Z,12
2023-05-06T02:21:57.089Z,12.5
2023-05-06T02:23:59.082Z,10.8
2023-05-06T02:26:01.092Z,12.6
2023-05-06T02:28:03.109Z,13.5
2023-05-06T02:36:14.309Z,11.6
2023-05-06T02:38:16.295Z,9.7
2023-05-06T02:42:20.304Z,12.9
2023-05-06T02:48:29.447Z,14.2
2023-05-06T02:50:31.456Z,15
2023-05-06T02:54:35.465Z,15.3
2023-05-06T02:58:42.753Z,16
2023-05-06T03:00:44.751Z,16
2023-05-06T03:03:49.427Z,16.2
2023-05-06T03:05:51.392Z,15.7
2023-05-06T03:07:53.417Z,16.3
2023-05-06T03:12:00.627Z,15.8
2023-05-06T03:14:02.652Z,16
2023-05-06T03:16:04.661Z,16.6
2023-05-06T03:18:06.673Z,15.4
2023-05-06T03:20:08.655Z,14.8
2023-05-06T03:24:13.568Z,14.5
2023-05-06T03:26:18.776Z,13.9
2023-05-06T03:28:20.781Z,14
2023-05-06T03:30:22.746Z,13.4
2023-05-06T03:32:24.704Z,13.4
2023-05-06T03:34:26.672Z,14.6
2023-05-06T03:36:28.661Z,13.6
2023-05-06T03:38:30.711Z,12.2
2023-05-06T03:40:36.009Z,14.2
2023-05-06T03:42:37.928Z,13.6
2023-05-06T03:44:39.960Z,13.7
2023-05-06T03:48:43.953Z,14.6
2023-05-06T03:54:53.063Z,14.2
2023-05-06T03:56:55.106Z,13.6
2023-05-06T03:58:57.121Z,14.3
2023-05-06T04:03:27.942Z,13.9
2023-05-06T04:05:29.842Z,13
2023-05-06T04:07:34.919Z,13.2
2023-05-06T04:11:38.968Z,13.3
2023-05-06T04:19:46.942Z,15.4
2023-05-06T04:21:52.167Z,13.8
2023-05-06T04:23:54.186Z,13.5
2023-05-06T04:25:56.176Z,16.4
2023-05-06T04:36:09.426Z,18.5
2023-05-06T04:38:11.422Z,14.6
2023-05-06T04:44:17.404Z,16.6
2023-05-06T04:46:19.579Z,17
2023-05-06T04:50:26.597Z,18
2023-05-06T04:54:30.568Z,18.2
2023-05-06T04:55:33.172Z,20.1
2023-05-06T04:59:37.163Z,19.7
2023-05-06T05:01:39.179Z,18.4
2023-05-06T05:03:44.456Z,19.3
2023-05-06T05:05:46.368Z,20.1
2023-05-06T05:07:48.331Z,17.7
2023-05-06T05:09:50.316Z,19.3
2023-05-06T05:11:52.348Z,20.1
2023-05-06T05:13:56.843Z,19.8
2023-05-06T05:15:56.311Z,19.6
2023-05-06T05:18:01.663Z,21.6
2023-05-06T05:20:03.519Z,19.8
2023-05-06T05:22:05.492Z,18.4
2023-05-06T05:24:07.478Z,16
2023-05-06T05:28:11.481Z,16.8
2023-05-06T05:34:20.579Z,14.6
2023-05-06T05:38:24.553Z,15.1
2023-05-06T05:42:28.543Z,14.5
2023-05-06T05:44:30.568Z,13.4
2023-05-06T05:50:39.687Z,13.4
2023-05-06T05:51:42.327Z,15.1
2023-05-06T05:53:44.333Z,13.1
2023-05-06T05:57:48.334Z,14.1
2023-05-06T05:59:53.471Z,12.9
2023-05-06T06:01:55.478Z,13.4
2023-05-06T06:05:59.508Z,12.8
2023-05-06T06:12:05.408Z,13.2
2023-05-06T06:14:10.433Z,12.2
2023-05-06T06:16:12.453Z,10.7
2023-05-06T06:18:14.343Z,11.9
2023-05-06T06:20:16.191Z,12.1
2023-05-06T06:24:19.993Z,11.9
2023-05-06T06:26:21.852Z,11.3
2023-05-06T06:28:26.880Z,10.5
2023-05-06T06:30:28.823Z,9.1
2023-05-06T06:36:34.394Z,10.4
2023-05-06T06:38:36.308Z,11.5
2023-05-06T06:42:43.209Z,10.8
2023-05-06T06:44:45.090Z,9.8
2023-05-06T06:46:46.973Z,10.1
2023-05-06T06:47:49.508Z,10.7
2023-05-06T06:51:53.247Z,10.9
2023-05-06T06:53:55.147Z,12
2023-05-06T07:08:11.344Z,11.4
2023-05-06T07:12:18.236Z,11.1
2023-05-06T07:28:36.275Z,11.5
2023-05-06T07:38:50.212Z,11.3
2023-05-06T07:45:22.451Z,13.6
2023-05-06T07:47:24.359Z,13.4
2023-05-06T07:49:26.169Z,11.5
2023-05-06T07:51:31.164Z,11.4
2023-05-06T07:53:32.993Z,12.3
2023-05-06T07:55:35.337Z,13
2023-05-06T07:59:38.541Z,12.2
2023-05-06T08:03:42.425Z,12.9
2023-05-06T08:07:49.102Z,12.6
2023-05-06T08:09:50.967Z,14.3
2023-05-06T08:11:52.795Z,13.4
2023-05-06T08:13:54.651Z,12.1
2023-05-06T08:24:07.096Z,15.7
2023-05-06T08:26:08.934Z,13.1
2023-05-06T08:28:10.785Z,15.2
2023-05-06T08:30:12.641Z,14.4
2023-05-06T08:36:21.290Z,13.7
2023-05-06T08:38:23.160Z,14.7
2023-05-06T08:39:25.643Z,13.6
2023-05-06T08:41:27.517Z,15
2023-05-06T08:43:29.330Z,14.7
2023-05-06T08:45:31.229Z,13.9
2023-05-06T08:47:36.246Z,14.5
2023-05-06T08:49:37.995Z,13.8
2023-05-06T08:51:39.825Z,15
2023-05-06T08:53:41.665Z,13.2
2023-05-06T08:59:47.182Z,10.7
2023-05-06T09:01:52.174Z,14.8
2023-05-06T09:05:55.836Z,15.9
2023-05-06T09:12:01.316Z,12.2
2023-05-06T09:16:08.123Z,16.1
2023-05-06T09:20:11.815Z,12.9
2023-05-06T09:22:13.574Z,12.1
2023-05-06T09:32:25.792Z,11.5
2023-05-06T09:34:27.544Z,11.8
2023-05-06T09:35:30.027Z,12.3
2023-05-06T09:37:31.825Z,12.2
2023-05-06T09:39:33.593Z,12.2
2023-05-06T09:41:35.388Z,10.8
2023-05-06T09:43:40.330Z,11
2023-05-06T09:45:42.086Z,9.3
2023-05-06T09:47:43.910Z,9.1
2023-05-06T09:49:45.660Z,8.5
2023-05-06T09:51:47.352Z,9.1
2023-05-06T09:53:49.141Z,9.5
2023-05-06T09:55:50.885Z,8.5
2023-05-06T09:57:55.802Z,11.6
2023-05-06T09:59:57.549Z,11.5
2023-05-06T10:01:59.380Z,9.2
2023-05-06T10:04:01.224Z,7.6
2023-05-06T10:06:02.784Z,8.5
2023-05-06T10:22:19.923Z,7.5
2023-05-06T10:24:21.636Z,7.1
2023-05-06T10:31:32.577Z,4.9
2023-05-06T10:33:34.263Z,7.5
2023-05-06T10:35:36.016Z,5.7
2023-05-06T10:37:37.752Z,5.7
2023-05-06T10:39:42.699Z,5.6
2023-05-06T10:41:44.430Z,5.5
2023-05-06T10:43:46.186Z,5.9
2023-05-06T10:45:47.969Z,6.8
2023-05-06T10:47:49.712Z,6.2
2023-05-06T10:49:51.450Z,5.4
2023-05-06T10:51:53.222Z,6.3
2023-05-06T10:55:59.912Z,4.6
2023-05-06T10:58:01.669Z,3.9
2023-05-06T11:00:03.440Z,6
2023-05-06T11:04:06.975Z,6.1
2023-05-06T11:06:08.709Z,4.2
2023-05-06T11:08:13.641Z,5.8
2023-05-06T11:10:15.483Z,5.5
2023-05-06T11:12:17.178Z,4.5
2023-05-06T11:16:20.748Z,4.8
2023-05-06T11:35:09.563Z,5.3
2023-05-06T11:39:13.125Z,5.2
2023-05-06T11:41:14.884Z,5.4
2023-05-06T11:43:16.666Z,4.9
2023-05-06T11:45:18.438Z,4.6
2023-05-06T11:47:20.212Z,4.3
2023-05-06T11:49:25.152Z,3.4
2023-05-06T11:51:26.930Z,4.4
2023-05-06T11:53:28.695Z,3.9
2023-05-06T11:55:30.481Z,3.8
2023-05-06T11:57:32.223Z,3.9
2023-05-06T11:59:34.023Z,3.5
2023-05-06T12:01:35.799Z,3.2
2023-05-06T12:23:02.162Z,4.4
2023-05-06T12:25:03.890Z,3.1
2023-05-06T12:27:05.669Z,3.5
2023-05-06T12:29:07.363Z,3.2
2023-05-06T12:31:12.360Z,3.5
2023-05-06T12:33:14.022Z,2.7
2023-05-06T12:35:15.743Z,3.2
2023-05-06T12:37:17.448Z,3.2
2023-05-06T12:39:19.192Z,2.8
2023-05-06T12:41:20.967Z,3.3
2023-05-06T12:43:22.687Z,3.4
2023-05-06T12:45:27.647Z,2.3
2023-05-06T12:47:29.420Z,2.2
2023-05-06T12:49:31.057Z,2.7
2023-05-06T12:51:32.806Z,2
2023-05-06T12:53:34.519Z,2.1
2023-05-06T12:55:36.282Z,2.3
2023-05-06T12:57:38.040Z,1.9
2023-05-06T12:59:42.927Z,2.7
2023-05-06T13:19:04.319Z,3.4
2023-05-06T13:21:06.059Z,2.7
2023-05-06T13:23:07.852Z,3.2
2023-05-06T13:27:16.052Z,3.1
2023-05-06T13:29:17.806Z,3.2
2023-05-06T13:31:19.592Z,2.4
2023-05-06T13:33:21.321Z,1.9
2023-05-06T13:35:23.101Z,1.7
2023-05-06T13:37:24.824Z,2
2023-05-06T13:39:26.599Z,2
2023-05-06T13:43:33.300Z,2.3
2023-05-06T13:45:35.065Z,2.6
2023-05-06T14:03:54.086Z,2
2023-05-06T14:05:55.868Z,2.2
2023-05-06T14:15:08.703Z,2.6
2023-05-06T14:17:10.272Z,3.3
2023-05-06T14:19:11.991Z,2
2023-05-06T14:21:13.771Z,6
2023-05-06T14:23:18.685Z,3.8
2023-05-06T14:25:20.446Z,2.5
2023-05-06T14:27:22.306Z,2.7
2023-05-06T14:29:23.967Z,2.9
2023-05-06T14:31:25.785Z,2.5
2023-05-06T14:33:27.503Z,2.4
2023-05-06T14:35:29.295Z,2.3
2023-05-06T14:37:34.242Z,2.2
2023-05-06T14:39:36.013Z,1.8
2023-05-06T14:41:37.783Z,1.9
2023-05-06T14:43:39.564Z,2.7
2023-05-06T14:53:51.631Z,1.7
2023-05-06T15:01:58.739Z,2.9
2023-05-06T15:04:00.528Z,1.5
2023-05-06T15:08:07.231Z,2.7
2023-05-06T15:20:47.644Z,3.8
2023-05-06T15:30:56.536Z,3.9
2023-05-06T15:47:17.114Z,4
2023-05-06T15:51:20.682Z,3.3
2023-05-06T15:57:26.071Z,3.2
2023-05-06T16:03:34.739Z,4.4
2023-05-06T16:05:36.398Z,2.5
2023-05-06T16:06:38.904Z,2.8
2023-05-06T16:08:40.670Z,4.6
2023-05-06T16:10:42.482Z,3.5
2023-05-06T16:12:44.335Z,3.1
2023-05-06T16:14:49.251Z,4.3
2023-05-06T16:16:51.057Z,4.8
2023-05-06T16:18:52.848Z,4.1
2023-05-06T16:20:54.647Z,3.7
2023-05-06T16:29:05.067Z,3.8
2023-05-06T16:33:08.762Z,3.5
2023-05-06T16:35:10.763Z,4.2
2023-05-06T16:39:14.116Z,4.5
2023-05-06T16:41:15.936Z,5.5
2023-05-06T16:45:22.755Z,4.2
2023-05-06T16:47:24.750Z,4.6
2023-05-06T16:49:26.409Z,3.7
2023-05-06T16:51:28.260Z,3.9
2023-05-06T16:55:31.950Z,3.5
2023-05-06T16:57:36.936Z,2.7
2023-05-06T17:02:43.240Z,2.9
2023-05-06T17:04:44.984Z,3.2
2023-05-06T17:08:48.769Z,2.6
2023-05-06T17:10:53.746Z,3.9
2023-05-06T17:12:55.628Z,4.3
2023-05-06T17:14:57.457Z,5.3
2023-05-06T17:16:59.349Z,3.9
2023-05-06T17:19:01.205Z,3.9
2023-05-06T17:21:03.026Z,2.8
2023-05-06T17:23:04.921Z,3.8
2023-05-06T17:25:09.907Z,4.2
2023-05-06T17:31:15.525Z,5.1
2023-05-06T17:43:29.882Z,13.2
2023-05-06T17:53:42.390Z,25.5
2023-05-06T17:58:48.623Z,15.3
2023-05-06T18:00:50.506Z,17.2
2023-05-06T18:02:52.468Z,18.2
2023-05-06T18:06:59.245Z,22.8
2023-05-06T18:09:01.119Z,14.2
2023-05-06T18:11:02.973Z,20.7
2023-05-06T18:13:04.949Z,15.7
2023-05-06T18:15:06.734Z,51.2
2023-05-06T18:17:08.597Z,19.3
2023-05-06T18:19:10.447Z,17
2023-05-06T18:21:15.509Z,16.7
2023-05-06T18:23:17.353Z,13.4
2023-05-06T18:25:19.231Z,14.7
2023-05-06T18:27:21.089Z,13.8
2023-05-06T18:31:24.914Z,15
2023-05-06T18:41:37.372Z,5.6
2023-05-06T18:43:39.238Z,6.3
2023-05-06T18:45:41.136Z,5.3
2023-05-06T18:49:48.032Z,5.7
2023-05-06T18:51:49.909Z,5.8
2023-05-06T18:53:51.786Z,5.5
2023-05-06T18:56:20.353Z,6
2023-05-06T18:58:22.254Z,6.6
2023-05-06T19:02:29.159Z,5.3
2023-05-06T19:16:45.534Z,3.6
2023-05-06T19:18:48.951Z,4.2
2023-05-06T19:22:52.664Z,4.5
2023-05-06T19:31:03.415Z,4.1
2023-05-06T19:33:05.337Z,5.6
2023-05-06T19:35:07.192Z,4.5
2023-05-06T19:37:09.049Z,5.3
2023-05-06T19:41:12.848Z,7.2
2023-05-06T19:45:19.793Z,4.7
2023-05-06T19:47:21.677Z,4.6
2023-05-06T19:49:23.520Z,5.4
2023-05-06T19:52:27.919Z,5.7
2023-05-06T19:54:29.807Z,4.8
2023-05-06T19:56:31.693Z,4
2023-05-06T19:58:36.705Z,4.6
2023-05-06T20:00:38.700Z,4.6
2023-05-06T20:06:44.284Z,4.7
2023-05-06T20:08:46.159Z,5.1
2023-05-06T20:10:48.059Z,5.8
2023-05-06T20:12:54.832Z,6
2023-05-06T20:14:54.961Z,5.1
2023-05-06T20:16:56.819Z,6
2023-05-06T20:18:58.709Z,5.6
2023-05-06T20:21:00.601Z,12.7
2023-05-06T20:23:02.475Z,10.2
2023-05-06T20:27:09.407Z,6.5
2023-05-06T20:29:11.259Z,5.1
2023-05-06T20:31:13.234Z,8.1
2023-05-06T20:33:15.080Z,7.8
2023-05-06T20:35:16.898Z,7.1
2023-05-06T20:39:20.681Z,8.1
2023-05-06T20:41:25.705Z,6.3
2023-05-06T20:43:27.569Z,5.9
2023-05-06T20:46:31.999Z,7
2023-05-06T20:48:33.863Z,5.2
2023-05-06T20:52:37.649Z,5.4
2023-05-06T20:54:42.665Z,7.1
2023-05-06T20:56:44.552Z,6.8
2023-05-06T21:00:48.408Z,7.4
2023-05-06T21:02:50.264Z,7.8
2023-05-06T21:04:52.080Z,7
2023-05-06T21:06:53.986Z,8.3
2023-05-06T21:08:59.006Z,6.2
2023-05-06T21:11:00.917Z,7.8
2023-05-06T21:13:02.827Z,8.3
2023-05-06T21:15:04.668Z,7.1
2023-05-06T21:17:06.606Z,7.2
2023-05-06T21:21:10.321Z,7.5
2023-05-06T21:23:15.318Z,9
2023-05-06T21:27:19.137Z,9.7
2023-05-06T21:31:22.919Z,10.2
2023-05-06T21:37:31.692Z,11.1
2023-05-06T21:39:33.971Z,12
2023-05-06T21:42:38.429Z,10.3
2023-05-06T21:44:40.298Z,12.1
2023-05-06T21:46:42.200Z,10.6
2023-05-06T21:48:44.063Z,9.7
2023-05-06T21:50:49.072Z,10
2023-05-06T21:52:50.965Z,10.5
2023-05-06T21:54:52.886Z,9.9
2023-05-06T21:56:54.745Z,10.6
2023-05-06T21:58:56.664Z,11.7
2023-05-06T22:00:58.538Z,9.3
2023-05-06T22:09:09.714Z,16.7
2023-05-06T22:11:11.138Z,15.7
2023-05-06T22:17:16.829Z,12.8
2023-05-06T22:21:23.723Z,13.8
2023-05-06T22:23:25.653Z,15
2023-05-06T22:25:27.537Z,13.9
2023-05-06T22:27:29.434Z,12.2
2023-05-06T22:29:31.335Z,12.4
2023-05-06T22:40:08.619Z,14.8
2023-05-06T22:42:10.495Z,13.8
2023-05-06T22:44:12.377Z,12.7
2023-05-06T22:46:17.423Z,15
2023-05-06T22:54:24.965Z,14.6
2023-05-06T22:56:26.872Z,12.9
2023-05-06T22:58:28.747Z,12.5
2023-05-06T23:00:33.784Z,13.9
2023-05-06T23:02:35.674Z,13.1
2023-05-06T23:04:37.595Z,13.8
2023-05-06T23:06:39.458Z,14.2
2023-05-06T23:08:41.367Z,13.5
2023-05-06T23:10:43.221Z,15.4
2023-05-06T23:14:50.147Z,13.5
2023-05-06T23:16:52.111Z,13.9
2023-05-06T23:18:53.953Z,13.3
2023-05-06T23:20:55.841Z,11.3
2023-05-06T23:22:57.724Z,13.7
2023-05-06T23:24:59.613Z,13
2023-05-06T23:27:01.508Z,12.2
2023-05-06T23:34:12.812Z,14.2
2023-05-06T23:36:14.721Z,12.8
2023-05-06T23:38:16.617Z,11.8
2023-05-06T23:42:25.717Z,14.5
2023-05-06T23:44:26.330Z,12.2
2023-05-06T23:46:28.336Z,14
2023-05-06T23:48:30.154Z,12.3
2023-05-06T23:50:32.028Z,13.4
2023-05-06T23:52:33.890Z,13.6
2023-05-06T23:54:35.817Z,14.2
2023-05-06T23:56:40.804Z,11.4
2023-05-06T23:58:42.703Z,13.3
